sensor_id;sensor_type;location;lat;lon;timestamp;temperature;humidity
51615;DHT22;37695;52.960;6.188;2023-09-19T00:01:42;14.40;99.90
51615;DHT22;37695;52.960;6.188;2023-09-19T00:04:11;14.40;99.90
51615;DHT22;37695;52.960;6.188;2023-09-19T00:06:38;14.30;99.90
51615;DHT22;37695;52.960;6.188;2023-09-19T00:09:04;14.30;99.90
51615;DHT22;37695;52.960;6.188;2023-09-19T00:11:30;14.30;99.90
51615;DHT22;37695;52.960;6.188;2023-09-19T00:13:57;14.30;99.90
51615;DHT22;37695;52.960;6.188;2023-09-19T00:16:25;14.30;99.90
51615;DHT22;37695;52.960;6.188;2023-09-19T00:18:51;14.20;99.90
51615;DHT22;37695;52.960;6.188;2023-09-19T00:21:18;14.20;99.90
51615;DHT22;37695;52.960;6.188;2023-09-19T00:23:44;14.20;99.90
51615;DHT22;37695;52.960;6.188;2023-09-19T00:26:10;14.10;99.90
51615;DHT22;37695;52.960;6.188;2023-09-19T00:28:35;14.10;99.90
51615;DHT22;37695;52.960;6.188;2023-09-19T00:31:01;14.10;99.90
51615;DHT22;37695;52.960;6.188;2023-09-19T00:33:27;14.10;99.90
51615;DHT22;37695;52.960;6.188;2023-09-19T00:35:56;14.10;99.90
51615;DHT22;37695;52.960;6.188;2023-09-19T00:38:22;14.10;99.90
51615;DHT22;37695;52.960;6.188;2023-09-19T00:40:53;14.10;99.90
51615;DHT22;37695;52.960;6.188;2023-09-19T00:43:21;14.10;99.90
51615;DHT22;37695;52.960;6.188;2023-09-19T00:45:51;14.10;99.90
51615;DHT22;37695;52.960;6.188;2023-09-19T00:48:16;14.10;99.90
51615;DHT22;37695;52.960;6.188;2023-09-19T00:50:43;14.00;99.90
51615;DHT22;37695;52.960;6.188;2023-09-19T00:53:09;14.00;99.90
51615;DHT22;37695;52.960;6.188;2023-09-19T00:55:36;14.00;99.90
51615;DHT22;37695;52.960;6.188;2023-09-19T00:58:10;14.00;99.90
51615;DHT22;37695;52.960;6.188;2023-09-19T01:00:36;14.00;99.90
51615;DHT22;37695;52.960;6.188;2023-09-19T01:03:02;14.00;99.90
51615;DHT22;37695;52.960;6.188;2023-09-19T01:05:28;14.00;99.90
51615;DHT22;37695;52.960;6.188;2023-09-19T01:07:55;14.00;99.90
51615;DHT22;37695;52.960;6.188;2023-09-19T01:10:21;13.90;99.90
51615;DHT22;37695;52.960;6.188;2023-09-19T01:13:08;13.90;99.90
51615;DHT22;37695;52.960;6.188;2023-09-19T01:15:51;13.90;99.90
51615;DHT22;37695;52.960;6.188;2023-09-19T01:24:05;13.90;99.90
51615;DHT22;37695;52.960;6.188;2023-09-19T01:29:33;13.80;99.90
51615;DHT22;37695;52.960;6.188;2023-09-19T01:32:04;13.80;99.90
51615;DHT22;37695;52.960;6.188;2023-09-19T01:35:03;13.70;99.90
51615;DHT22;37695;52.960;6.188;2023-09-19T01:37:29;13.70;99.90
51615;DHT22;37695;52.960;6.188;2023-09-19T01:40:07;13.60;99.90
51615;DHT22;37695;52.960;6.188;2023-09-19T01:42:59;13.60;99.90
51615;DHT22;37695;52.960;6.188;2023-09-19T01:45:43;13.60;99.90
51615;DHT22;37695;52.960;6.188;2023-09-19T01:51:10;13.60;99.90
51615;DHT22;37695;52.960;6.188;2023-09-19T01:53:44;13.50;99.90
51615;DHT22;37695;52.960;6.188;2023-09-19T01:56:25;13.50;99.90
51615;DHT22;37695;52.960;6.188;2023-09-19T01:58:56;13.50;99.90
51615;DHT22;37695;52.960;6.188;2023-09-19T02:01:25;13.50;99.90
51615;DHT22;37695;52.960;6.188;2023-09-19T02:03:52;13.40;99.90
51615;DHT22;37695;52.960;6.188;2023-09-19T02:06:19;13.40;99.90
51615;DHT22;37695;52.960;6.188;2023-09-19T02:08:46;13.40;99.90
51615;DHT22;37695;52.960;6.188;2023-09-19T02:11:12;13.40;99.90
51615;DHT22;37695;52.960;6.188;2023-09-19T02:13:38;13.40;99.90
51615;DHT22;37695;52.960;6.188;2023-09-19T02:16:05;13.40;99.90
51615;DHT22;37695;52.960;6.188;2023-09-19T02:18:32;13.40;99.90
51615;DHT22;37695;52.960;6.188;2023-09-19T02:21:01;13.40;99.90
51615;DHT22;37695;52.960;6.188;2023-09-19T02:23:26;13.30;99.90
51615;DHT22;37695;52.960;6.188;2023-09-19T02:25:56;13.30;99.90
51615;DHT22;37695;52.960;6.188;2023-09-19T02:28:26;13.30;99.90
51615;DHT22;37695;52.960;6.188;2023-09-19T02:30:56;13.20;99.90
51615;DHT22;37695;52.960;6.188;2023-09-19T02:33:21;13.20;99.90
51615;DHT22;37695;52.960;6.188;2023-09-19T02:35:47;13.20;99.90
51615;DHT22;37695;52.960;6.188;2023-09-19T02:38:13;13.20;99.90
51615;DHT22;37695;52.960;6.188;2023-09-19T02:40:39;13.20;99.90
51615;DHT22;37695;52.960;6.188;2023-09-19T02:43:05;13.20;99.90
51615;DHT22;37695;52.960;6.188;2023-09-19T02:45:32;13.30;99.90
51615;DHT22;37695;52.960;6.188;2023-09-19T02:47:57;13.30;99.90
51615;DHT22;37695;52.960;6.188;2023-09-19T02:50:23;13.30;99.90
51615;DHT22;37695;52.960;6.188;2023-09-19T02:52:49;13.30;99.90
51615;DHT22;37695;52.960;6.188;2023-09-19T02:55:16;13.30;99.90
51615;DHT22;37695;52.960;6.188;2023-09-19T03:00:13;13.40;99.90
51615;DHT22;37695;52.960;6.188;2023-09-19T03:02:38;13.40;99.90
51615;DHT22;37695;52.960;6.188;2023-09-19T03:05:06;13.50;99.90
51615;DHT22;37695;52.960;6.188;2023-09-19T03:07:32;13.40;99.90
51615;DHT22;37695;52.960;6.188;2023-09-19T03:09:59;13.50;99.90
51615;DHT22;37695;52.960;6.188;2023-09-19T03:12:25;13.40;99.90
51615;DHT22;37695;52.960;6.188;2023-09-19T03:14:51;13.40;99.90
51615;DHT22;37695;52.960;6.188;2023-09-19T03:17:17;13.40;99.90
51615;DHT22;37695;52.960;6.188;2023-09-19T03:19:45;13.40;99.90
51615;DHT22;37695;52.960;6.188;2023-09-19T03:22:10;13.30;99.90
51615;DHT22;37695;52.960;6.188;2023-09-19T03:24:36;13.30;99.90
51615;DHT22;37695;52.960;6.188;2023-09-19T03:27:03;13.30;99.90
51615;DHT22;37695;52.960;6.188;2023-09-19T03:29:28;13.30;99.90
51615;DHT22;37695;52.960;6.188;2023-09-19T03:31:54;13.30;99.90
51615;DHT22;37695;52.960;6.188;2023-09-19T03:34:20;13.30;99.90
51615;DHT22;37695;52.960;6.188;2023-09-19T03:36:46;13.30;99.90
51615;DHT22;37695;52.960;6.188;2023-09-19T03:39:11;13.30;99.90
51615;DHT22;37695;52.960;6.188;2023-09-19T03:41:37;13.40;99.90
51615;DHT22;37695;52.960;6.188;2023-09-19T03:44:03;13.40;99.90
51615;DHT22;37695;52.960;6.188;2023-09-19T03:46:28;13.40;99.90
51615;DHT22;37695;52.960;6.188;2023-09-19T03:48:54;13.50;99.90
51615;DHT22;37695;52.960;6.188;2023-09-19T03:51:20;13.50;99.90
51615;DHT22;37695;52.960;6.188;2023-09-19T03:53:46;13.60;99.90
51615;DHT22;37695;52.960;6.188;2023-09-19T03:56:12;13.60;99.90
51615;DHT22;37695;52.960;6.188;2023-09-19T03:58:37;13.60;99.90
51615;DHT22;37695;52.960;6.188;2023-09-19T04:01:04;13.60;99.90
51615;DHT22;37695;52.960;6.188;2023-09-19T04:03:32;13.60;99.90
51615;DHT22;37695;52.960;6.188;2023-09-19T04:06:15;13.60;99.90
51615;DHT22;37695;52.960;6.188;2023-09-19T04:08:41;13.70;99.90
51615;DHT22;37695;52.960;6.188;2023-09-19T04:11:06;13.70;99.90
51615;DHT22;37695;52.960;6.188;2023-09-19T04:13:32;13.70;99.90
51615;DHT22;37695;52.960;6.188;2023-09-19T04:15:58;13.70;99.90
51615;DHT22;37695;52.960;6.188;2023-09-19T04:18:23;13.70;99.90
51615;DHT22;37695;52.960;6.188;2023-09-19T04:20:49;13.70;99.90
51615;DHT22;37695;52.960;6.188;2023-09-19T04:23:16;13.60;99.90
51615;DHT22;37695;52.960;6.188;2023-09-19T04:25:42;13.70;99.90
51615;DHT22;37695;52.960;6.188;2023-09-19T04:28:08;13.60;99.90
51615;DHT22;37695;52.960;6.188;2023-09-19T04:30:36;13.70;99.90
51615;DHT22;37695;52.960;6.188;2023-09-19T04:33:03;13.70;99.90
51615;DHT22;37695;52.960;6.188;2023-09-19T04:35:28;13.70;99.90
51615;DHT22;37695;52.960;6.188;2023-09-19T04:37:57;13.70;99.90
51615;DHT22;37695;52.960;6.188;2023-09-19T04:40:22;13.70;99.90
51615;DHT22;37695;52.960;6.188;2023-09-19T04:42:53;13.80;99.90
51615;DHT22;37695;52.960;6.188;2023-09-19T04:45:23;13.80;99.90
51615;DHT22;37695;52.960;6.188;2023-09-19T04:47:48;13.70;99.90
51615;DHT22;37695;52.960;6.188;2023-09-19T04:50:14;13.70;99.90
51615;DHT22;37695;52.960;6.188;2023-09-19T04:52:41;13.70;99.90
51615;DHT22;37695;52.960;6.188;2023-09-19T04:55:13;13.70;99.90
51615;DHT22;37695;52.960;6.188;2023-09-19T04:57:49;13.70;99.90
51615;DHT22;37695;52.960;6.188;2023-09-19T05:00:20;13.70;99.90
51615;DHT22;37695;52.960;6.188;2023-09-19T05:02:54;13.70;99.90
51615;DHT22;37695;52.960;6.188;2023-09-19T05:05:20;13.60;99.90
51615;DHT22;37695;52.960;6.188;2023-09-19T05:07:47;13.60;99.90
51615;DHT22;37695;52.960;6.188;2023-09-19T05:10:14;13.60;99.90
51615;DHT22;37695;52.960;6.188;2023-09-19T05:12:40;13.60;99.90
51615;DHT22;37695;52.960;6.188;2023-09-19T05:15:07;13.60;99.90
51615;DHT22;37695;52.960;6.188;2023-09-19T05:17:33;13.60;99.90
51615;DHT22;37695;52.960;6.188;2023-09-19T05:20:00;13.60;99.90
51615;DHT22;37695;52.960;6.188;2023-09-19T05:22:31;13.60;99.90
51615;DHT22;37695;52.960;6.188;2023-09-19T05:24:58;13.60;99.90
51615;DHT22;37695;52.960;6.188;2023-09-19T05:27:24;13.60;99.90
51615;DHT22;37695;52.960;6.188;2023-09-19T05:29:50;13.60;99.90
51615;DHT22;37695;52.960;6.188;2023-09-19T05:32:18;13.60;99.90
51615;DHT22;37695;52.960;6.188;2023-09-19T05:34:45;13.60;99.90
51615;DHT22;37695;52.960;6.188;2023-09-19T05:37:11;13.50;99.90
51615;DHT22;37695;52.960;6.188;2023-09-19T05:39:36;13.60;99.90
51615;DHT22;37695;52.960;6.188;2023-09-19T05:42:03;13.60;99.90
51615;DHT22;37695;52.960;6.188;2023-09-19T05:44:29;13.60;99.90
51615;DHT22;37695;52.960;6.188;2023-09-19T05:46:54;13.60;99.90
51615;DHT22;37695;52.960;6.188;2023-09-19T05:49:22;13.60;99.90
51615;DHT22;37695;52.960;6.188;2023-09-19T05:51:47;13.60;99.90
51615;DHT22;37695;52.960;6.188;2023-09-19T05:54:13;13.60;99.90
51615;DHT22;37695;52.960;6.188;2023-09-19T05:56:39;13.60;99.90
51615;DHT22;37695;52.960;6.188;2023-09-19T05:59:04;13.60;99.90
51615;DHT22;37695;52.960;6.188;2023-09-19T06:01:31;13.60;99.90
51615;DHT22;37695;52.960;6.188;2023-09-19T06:03:58;13.70;99.90
51615;DHT22;37695;52.960;6.188;2023-09-19T06:06:26;13.70;99.90
51615;DHT22;37695;52.960;6.188;2023-09-19T06:08:51;13.70;99.90
51615;DHT22;37695;52.960;6.188;2023-09-19T06:11:17;13.70;99.90
51615;DHT22;37695;52.960;6.188;2023-09-19T06:13:45;13.70;99.90
51615;DHT22;37695;52.960;6.188;2023-09-19T06:16:12;13.80;99.90
51615;DHT22;37695;52.960;6.188;2023-09-19T06:18:38;13.80;99.90
51615;DHT22;37695;52.960;6.188;2023-09-19T06:21:04;13.80;99.90
51615;DHT22;37695;52.960;6.188;2023-09-19T06:23:34;13.80;99.90
51615;DHT22;37695;52.960;6.188;2023-09-19T06:26:00;13.90;99.90
51615;DHT22;37695;52.960;6.188;2023-09-19T06:28:25;13.90;99.90
51615;DHT22;37695;52.960;6.188;2023-09-19T06:30:54;13.90;99.90
51615;DHT22;37695;52.960;6.188;2023-09-19T06:33:19;13.90;99.90
51615;DHT22;37695;52.960;6.188;2023-09-19T06:35:47;13.90;99.90
51615;DHT22;37695;52.960;6.188;2023-09-19T06:38:13;13.90;99.90
51615;DHT22;37695;52.960;6.188;2023-09-19T06:40:41;13.90;99.90
51615;DHT22;37695;52.960;6.188;2023-09-19T06:43:12;13.90;99.90
51615;DHT22;37695;52.960;6.188;2023-09-19T06:45:38;13.90;99.90
51615;DHT22;37695;52.960;6.188;2023-09-19T06:48:04;14.00;99.90
51615;DHT22;37695;52.960;6.188;2023-09-19T06:50:30;13.90;99.90
51615;DHT22;37695;52.960;6.188;2023-09-19T06:52:57;14.00;99.90
51615;DHT22;37695;52.960;6.188;2023-09-19T06:55:24;14.00;99.90
51615;DHT22;37695;52.960;6.188;2023-09-19T06:57:53;14.10;99.90
51615;DHT22;37695;52.960;6.188;2023-09-19T07:00:22;14.10;99.90
51615;DHT22;37695;52.960;6.188;2023-09-19T07:03:03;14.20;99.90
51615;DHT22;37695;52.960;6.188;2023-09-19T07:05:30;14.30;99.90
51615;DHT22;37695;52.960;6.188;2023-09-19T07:08:00;14.30;99.90
51615;DHT22;37695;52.960;6.188;2023-09-19T07:10:26;14.40;99.90
51615;DHT22;37695;52.960;6.188;2023-09-19T07:12:56;14.50;99.90
51615;DHT22;37695;52.960;6.188;2023-09-19T07:15:22;14.50;99.90
51615;DHT22;37695;52.960;6.188;2023-09-19T07:17:53;14.60;99.90
51615;DHT22;37695;52.960;6.188;2023-09-19T07:20:20;14.60;99.90
51615;DHT22;37695;52.960;6.188;2023-09-19T07:22:45;14.60;99.90
51615;DHT22;37695;52.960;6.188;2023-09-19T07:25:12;14.60;99.90
51615;DHT22;37695;52.960;6.188;2023-09-19T07:27:40;14.60;99.90
51615;DHT22;37695;52.960;6.188;2023-09-19T07:30:06;14.50;99.90
51615;DHT22;37695;52.960;6.188;2023-09-19T07:32:34;14.50;99.90
51615;DHT22;37695;52.960;6.188;2023-09-19T07:35:02;14.50;99.90
51615;DHT22;37695;52.960;6.188;2023-09-19T07:37:32;14.60;99.90
51615;DHT22;37695;52.960;6.188;2023-09-19T07:40:02;14.60;99.90
51615;DHT22;37695;52.960;6.188;2023-09-19T07:42:28;14.80;99.90
51615;DHT22;37695;52.960;6.188;2023-09-19T07:44:54;14.90;99.90
51615;DHT22;37695;52.960;6.188;2023-09-19T07:47:20;15.00;99.90
51615;DHT22;37695;52.960;6.188;2023-09-19T07:49:49;15.10;99.90
51615;DHT22;37695;52.960;6.188;2023-09-19T07:52:15;15.10;99.90
51615;DHT22;37695;52.960;6.188;2023-09-19T07:54:41;15.20;99.90
51615;DHT22;37695;52.960;6.188;2023-09-19T07:57:07;15.30;99.90
51615;DHT22;37695;52.960;6.188;2023-09-19T07:59:32;15.30;99.90
51615;DHT22;37695;52.960;6.188;2023-09-19T08:01:58;15.30;99.90
51615;DHT22;37695;52.960;6.188;2023-09-19T08:04:23;15.40;99.90
51615;DHT22;37695;52.960;6.188;2023-09-19T08:06:51;15.40;99.90
51615;DHT22;37695;52.960;6.188;2023-09-19T08:09:17;15.40;99.90
51615;DHT22;37695;52.960;6.188;2023-09-19T08:11:47;15.50;99.90
51615;DHT22;37695;52.960;6.188;2023-09-19T08:14:12;15.50;99.90
51615;DHT22;37695;52.960;6.188;2023-09-19T08:16:40;15.50;99.90
51615;DHT22;37695;52.960;6.188;2023-09-19T08:19:05;15.60;99.90
51615;DHT22;37695;52.960;6.188;2023-09-19T08:21:31;15.60;99.90
51615;DHT22;37695;52.960;6.188;2023-09-19T08:23:57;15.70;99.90
51615;DHT22;37695;52.960;6.188;2023-09-19T08:26:23;15.70;99.90
51615;DHT22;37695;52.960;6.188;2023-09-19T08:28:49;15.80;99.90
51615;DHT22;37695;52.960;6.188;2023-09-19T08:31:16;15.80;99.90
51615;DHT22;37695;52.960;6.188;2023-09-19T08:33:42;15.80;99.90
51615;DHT22;37695;52.960;6.188;2023-09-19T08:36:08;15.80;99.90
51615;DHT22;37695;52.960;6.188;2023-09-19T08:38:35;15.90;99.90
51615;DHT22;37695;52.960;6.188;2023-09-19T08:41:05;15.90;99.90
51615;DHT22;37695;52.960;6.188;2023-09-19T08:43:31;16.00;99.90
51615;DHT22;37695;52.960;6.188;2023-09-19T08:46:20;16.10;99.90
51615;DHT22;37695;52.960;6.188;2023-09-19T08:49:24;16.10;99.90
51615;DHT22;37695;52.960;6.188;2023-09-19T08:52:04;16.10;99.90
51615;DHT22;37695;52.960;6.188;2023-09-19T08:54:37;16.00;99.90
51615;DHT22;37695;52.960;6.188;2023-09-19T08:57:07;16.00;99.90
51615;DHT22;37695;52.960;6.188;2023-09-19T08:59:38;16.00;99.90
51615;DHT22;37695;52.960;6.188;2023-09-19T09:02:11;16.10;99.90
51615;DHT22;37695;52.960;6.188;2023-09-19T09:04:39;16.10;99.90
51615;DHT22;37695;52.960;6.188;2023-09-19T09:07:12;16.20;99.90
51615;DHT22;37695;52.960;6.188;2023-09-19T09:09:39;16.30;99.90
51615;DHT22;37695;52.960;6.188;2023-09-19T09:12:11;16.30;99.90
51615;DHT22;37695;52.960;6.188;2023-09-19T09:14:45;16.40;99.90
51615;DHT22;37695;52.960;6.188;2023-09-19T09:17:13;16.50;99.90
51615;DHT22;37695;52.960;6.188;2023-09-19T09:19:38;16.70;99.90
51615;DHT22;37695;52.960;6.188;2023-09-19T09:22:08;16.70;99.90
51615;DHT22;37695;52.960;6.188;2023-09-19T09:24:34;16.80;99.90
51615;DHT22;37695;52.960;6.188;2023-09-19T09:27:03;16.80;99.90
51615;DHT22;37695;52.960;6.188;2023-09-19T09:29:47;16.80;99.90
51615;DHT22;37695;52.960;6.188;2023-09-19T09:32:27;16.90;99.90
51615;DHT22;37695;52.960;6.188;2023-09-19T09:34:56;17.10;99.90
51615;DHT22;37695;52.960;6.188;2023-09-19T09:37:22;17.20;99.90
51615;DHT22;37695;52.960;6.188;2023-09-19T09:39:54;17.30;99.90
51615;DHT22;37695;52.960;6.188;2023-09-19T09:42:35;17.40;99.90
51615;DHT22;37695;52.960;6.188;2023-09-19T09:45:21;17.50;99.90
51615;DHT22;37695;52.960;6.188;2023-09-19T09:47:58;17.60;99.90
51615;DHT22;37695;52.960;6.188;2023-09-19T09:50:25;17.60;99.90
51615;DHT22;37695;52.960;6.188;2023-09-19T09:56:07;17.70;99.90
51615;DHT22;37695;52.960;6.188;2023-09-19T09:58:36;17.70;99.90
51615;DHT22;37695;52.960;6.188;2023-09-19T10:01:03;17.70;99.90
51615;DHT22;37695;52.960;6.188;2023-09-19T10:03:38;17.70;99.90
51615;DHT22;37695;52.960;6.188;2023-09-19T10:06:14;17.70;99.90
51615;DHT22;37695;52.960;6.188;2023-09-19T10:09:06;17.70;99.90
51615;DHT22;37695;52.960;6.188;2023-09-19T10:11:37;17.70;99.90
51615;DHT22;37695;52.960;6.188;2023-09-19T10:14:07;17.70;99.90
51615;DHT22;37695;52.960;6.188;2023-09-19T10:16:36;17.70;99.90
51615;DHT22;37695;52.960;6.188;2023-09-19T10:19:06;17.80;99.90
51615;DHT22;37695;52.960;6.188;2023-09-19T10:21:35;17.80;99.90
51615;DHT22;37695;52.960;6.188;2023-09-19T10:24:03;17.90;99.90
51615;DHT22;37695;52.960;6.188;2023-09-19T10:26:30;17.90;99.90
51615;DHT22;37695;52.960;6.188;2023-09-19T10:28:57;17.90;99.90
51615;DHT22;37695;52.960;6.188;2023-09-19T10:31:26;17.80;99.90
51615;DHT22;37695;52.960;6.188;2023-09-19T10:33:54;17.80;99.90
51615;DHT22;37695;52.960;6.188;2023-09-19T10:36:25;18.00;99.90
51615;DHT22;37695;52.960;6.188;2023-09-19T10:38:53;18.10;99.90
51615;DHT22;37695;52.960;6.188;2023-09-19T10:41:22;18.20;99.90
51615;DHT22;37695;52.960;6.188;2023-09-19T10:43:48;18.20;99.90
51615;DHT22;37695;52.960;6.188;2023-09-19T10:46:16;18.20;99.90
51615;DHT22;37695;52.960;6.188;2023-09-19T10:48:41;18.10;99.90
51615;DHT22;37695;52.960;6.188;2023-09-19T10:51:18;18.20;99.90
51615;DHT22;37695;52.960;6.188;2023-09-19T10:56:26;18.20;99.90
51615;DHT22;37695;52.960;6.188;2023-09-19T10:59:09;18.30;99.90
51615;DHT22;37695;52.960;6.188;2023-09-19T11:01:46;18.20;99.90
51615;DHT22;37695;52.960;6.188;2023-09-19T11:04:28;18.10;99.90
51615;DHT22;37695;52.960;6.188;2023-09-19T11:07:10;18.00;99.90
51615;DHT22;37695;52.960;6.188;2023-09-19T11:09:43;17.90;99.90
51615;DHT22;37695;52.960;6.188;2023-09-19T11:12:11;17.90;99.90
51615;DHT22;37695;52.960;6.188;2023-09-19T11:14:38;18.00;99.90
51615;DHT22;37695;52.960;6.188;2023-09-19T11:30:48;18.50;99.90
51615;DHT22;37695;52.960;6.188;2023-09-19T11:33:28;18.60;99.90
51615;DHT22;37695;52.960;6.188;2023-09-19T11:36:13;19.10;99.90
51615;DHT22;37695;52.960;6.188;2023-09-19T11:43:47;18.50;99.90
51615;DHT22;37695;52.960;6.188;2023-09-19T11:46:12;18.30;99.90
51615;DHT22;37695;52.960;6.188;2023-09-19T11:48:42;18.20;99.90
51615;DHT22;37695;52.960;6.188;2023-09-19T11:51:14;18.10;99.90
51615;DHT22;37695;52.960;6.188;2023-09-19T11:53:53;18.10;99.90
51615;DHT22;37695;52.960;6.188;2023-09-19T11:56:23;18.20;99.90
51615;DHT22;37695;52.960;6.188;2023-09-19T11:58:54;18.20;99.90
51615;DHT22;37695;52.960;6.188;2023-09-19T12:01:42;18.20;99.90
51615;DHT22;37695;52.960;6.188;2023-09-19T12:04:11;18.10;99.90
51615;DHT22;37695;52.960;6.188;2023-09-19T12:06:37;18.00;99.90
51615;DHT22;37695;52.960;6.188;2023-09-19T12:09:12;18.00;99.90
51615;DHT22;37695;52.960;6.188;2023-09-19T12:11:42;17.90;99.90
51615;DHT22;37695;52.960;6.188;2023-09-19T12:14:09;17.90;99.90
51615;DHT22;37695;52.960;6.188;2023-09-19T12:16:35;17.90;99.90
51615;DHT22;37695;52.960;6.188;2023-09-19T12:19:21;18.00;99.90
51615;DHT22;37695;52.960;6.188;2023-09-19T12:22:00;18.00;99.90
51615;DHT22;37695;52.960;6.188;2023-09-19T12:24:34;18.20;99.90
51615;DHT22;37695;52.960;6.188;2023-09-19T12:27:05;18.30;99.90
51615;DHT22;37695;52.960;6.188;2023-09-19T12:29:32;18.50;99.90
51615;DHT22;37695;52.960;6.188;2023-09-19T12:31:59;18.50;99.90
51615;DHT22;37695;52.960;6.188;2023-09-19T12:34:32;18.60;99.90
51615;DHT22;37695;52.960;6.188;2023-09-19T12:37:11;18.70;99.90
51615;DHT22;37695;52.960;6.188;2023-09-19T12:39:45;18.70;99.90
51615;DHT22;37695;52.960;6.188;2023-09-19T12:42:26;18.70;99.90
51615;DHT22;37695;52.960;6.188;2023-09-19T12:44:58;18.60;99.90
51615;DHT22;37695;52.960;6.188;2023-09-19T12:47:27;18.50;99.90
51615;DHT22;37695;52.960;6.188;2023-09-19T12:52:49;18.30;99.90
51615;DHT22;37695;52.960;6.188;2023-09-19T12:55:25;18.30;99.90
51615;DHT22;37695;52.960;6.188;2023-09-19T12:58:12;18.30;99.90
51615;DHT22;37695;52.960;6.188;2023-09-19T13:00:42;18.20;99.90
51615;DHT22;37695;52.960;6.188;2023-09-19T13:03:18;18.20;99.90
51615;DHT22;37695;52.960;6.188;2023-09-19T13:06:02;18.10;99.90
51615;DHT22;37695;52.960;6.188;2023-09-19T13:08:33;18.10;99.90
51615;DHT22;37695;52.960;6.188;2023-09-19T13:11:06;18.10;99.90
51615;DHT22;37695;52.960;6.188;2023-09-19T13:13:44;18.10;99.90
51615;DHT22;37695;52.960;6.188;2023-09-19T13:16:11;18.00;99.90
51615;DHT22;37695;52.960;6.188;2023-09-19T13:18:47;18.00;99.90
51615;DHT22;37695;52.960;6.188;2023-09-19T13:21:14;18.00;99.90
51615;DHT22;37695;52.960;6.188;2023-09-19T13:23:53;18.00;99.90
51615;DHT22;37695;52.960;6.188;2023-09-19T13:26:25;18.00;99.90
51615;DHT22;37695;52.960;6.188;2023-09-19T13:28:51;18.00;99.90
51615;DHT22;37695;52.960;6.188;2023-09-19T13:31:16;17.90;99.90
51615;DHT22;37695;52.960;6.188;2023-09-19T13:33:47;18.00;99.90
51615;DHT22;37695;52.960;6.188;2023-09-19T13:36:13;18.10;99.90
51615;DHT22;37695;52.960;6.188;2023-09-19T13:38:42;18.20;99.90
51615;DHT22;37695;52.960;6.188;2023-09-19T13:41:09;18.20;99.90
51615;DHT22;37695;52.960;6.188;2023-09-19T13:43:36;18.30;99.90
51615;DHT22;37695;52.960;6.188;2023-09-19T13:46:01;18.40;99.90
51615;DHT22;37695;52.960;6.188;2023-09-19T13:48:27;18.50;99.90
51615;DHT22;37695;52.960;6.188;2023-09-19T13:50:55;18.60;99.90
51615;DHT22;37695;52.960;6.188;2023-09-19T13:53:21;18.60;99.90
51615;DHT22;37695;52.960;6.188;2023-09-19T13:55:46;18.60;99.90
51615;DHT22;37695;52.960;6.188;2023-09-19T13:58:14;18.50;99.90
51615;DHT22;37695;52.960;6.188;2023-09-19T14:00:39;18.60;99.90
51615;DHT22;37695;52.960;6.188;2023-09-19T14:03:05;18.50;99.90
51615;DHT22;37695;52.960;6.188;2023-09-19T14:05:31;18.50;99.90
51615;DHT22;37695;52.960;6.188;2023-09-19T14:07:57;18.50;99.90
51615;DHT22;37695;52.960;6.188;2023-09-19T14:10:23;18.40;99.90
51615;DHT22;37695;52.960;6.188;2023-09-19T14:12:49;18.40;99.90
51615;DHT22;37695;52.960;6.188;2023-09-19T14:15:15;18.40;99.90
51615;DHT22;37695;52.960;6.188;2023-09-19T14:17:40;18.40;99.90
51615;DHT22;37695;52.960;6.188;2023-09-19T14:20:11;18.30;99.90
51615;DHT22;37695;52.960;6.188;2023-09-19T14:22:36;18.40;99.90
51615;DHT22;37695;52.960;6.188;2023-09-19T14:25:03;18.40;99.90
51615;DHT22;37695;52.960;6.188;2023-09-19T14:27:29;18.40;99.90
51615;DHT22;37695;52.960;6.188;2023-09-19T14:29:55;18.40;99.90
51615;DHT22;37695;52.960;6.188;2023-09-19T14:32:22;18.40;99.90
51615;DHT22;37695;52.960;6.188;2023-09-19T14:34:47;18.40;99.90
51615;DHT22;37695;52.960;6.188;2023-09-19T14:37:13;18.40;99.90
51615;DHT22;37695;52.960;6.188;2023-09-19T14:39:40;18.30;99.90
51615;DHT22;37695;52.960;6.188;2023-09-19T14:42:06;18.20;99.90
51615;DHT22;37695;52.960;6.188;2023-09-19T14:44:32;18.20;99.90
51615;DHT22;37695;52.960;6.188;2023-09-19T14:46:57;18.20;99.90
51615;DHT22;37695;52.960;6.188;2023-09-19T14:49:24;18.10;99.90
51615;DHT22;37695;52.960;6.188;2023-09-19T14:51:50;18.10;99.90
51615;DHT22;37695;52.960;6.188;2023-09-19T14:54:17;17.90;99.90
51615;DHT22;37695;52.960;6.188;2023-09-19T14:56:44;17.90;99.90
51615;DHT22;37695;52.960;6.188;2023-09-19T14:59:10;17.90;99.90
51615;DHT22;37695;52.960;6.188;2023-09-19T15:01:36;17.90;99.90
51615;DHT22;37695;52.960;6.188;2023-09-19T15:04:02;17.80;99.90
51615;DHT22;37695;52.960;6.188;2023-09-19T15:06:28;17.80;99.90
51615;DHT22;37695;52.960;6.188;2023-09-19T15:08:53;17.80;99.90
51615;DHT22;37695;52.960;6.188;2023-09-19T15:11:19;17.60;99.90
51615;DHT22;37695;52.960;6.188;2023-09-19T15:13:47;17.60;99.90
51615;DHT22;37695;52.960;6.188;2023-09-19T15:16:13;17.60;99.90
51615;DHT22;37695;52.960;6.188;2023-09-19T15:18:44;17.50;99.90
51615;DHT22;37695;52.960;6.188;2023-09-19T15:21:11;17.60;99.90
51615;DHT22;37695;52.960;6.188;2023-09-19T15:23:39;17.50;99.90
51615;DHT22;37695;52.960;6.188;2023-09-19T15:26:06;17.50;99.90
51615;DHT22;37695;52.960;6.188;2023-09-19T15:28:32;17.40;99.90
51615;DHT22;37695;52.960;6.188;2023-09-19T15:31:09;17.40;99.90
51615;DHT22;37695;52.960;6.188;2023-09-19T15:33:36;17.40;99.90
51615;DHT22;37695;52.960;6.188;2023-09-19T15:38:31;17.30;99.90
51615;DHT22;37695;52.960;6.188;2023-09-19T15:40:58;17.30;99.90
51615;DHT22;37695;52.960;6.188;2023-09-19T15:43:23;17.20;99.90
51615;DHT22;37695;52.960;6.188;2023-09-19T15:45:49;17.20;99.90
51615;DHT22;37695;52.960;6.188;2023-09-19T15:48:15;17.10;99.90
51615;DHT22;37695;52.960;6.188;2023-09-19T15:50:42;17.10;99.90
51615;DHT22;37695;52.960;6.188;2023-09-19T15:53:07;17.10;99.90
51615;DHT22;37695;52.960;6.188;2023-09-19T15:55:38;17.00;99.90
51615;DHT22;37695;52.960;6.188;2023-09-19T15:58:05;17.00;99.90
51615;DHT22;37695;52.960;6.188;2023-09-19T16:00:32;17.00;99.90
51615;DHT22;37695;52.960;6.188;2023-09-19T16:03:00;16.90;99.90
51615;DHT22;37695;52.960;6.188;2023-09-19T16:05:27;17.00;99.90
51615;DHT22;37695;52.960;6.188;2023-09-19T16:07:53;16.90;99.90
51615;DHT22;37695;52.960;6.188;2023-09-19T16:10:18;16.90;99.90
51615;DHT22;37695;52.960;6.188;2023-09-19T16:12:44;16.80;99.90
51615;DHT22;37695;52.960;6.188;2023-09-19T16:15:10;16.90;99.90
51615;DHT22;37695;52.960;6.188;2023-09-19T16:17:41;16.80;99.90
51615;DHT22;37695;52.960;6.188;2023-09-19T16:20:06;16.80;99.90
51615;DHT22;37695;52.960;6.188;2023-09-19T16:22:38;16.70;99.90
51615;DHT22;37695;52.960;6.188;2023-09-19T16:25:04;16.70;99.90